ADDS METAR Data INFO
IDs: Format: Raw Decoded Include TAF

Data at: 0251 UTC 21 Jan 2018

KBJC 210247Z 01009KT 20SM OVC008 00/M02 A2981
KBJC 210213Z 02008KT 20SM OVC007 00/M02 A2982
KBJC 210151Z 02009KT 30SM OVC023 01/M02 A2982
KBJC 210122Z 02009KT 30SM BKN025 OVC034 02/M02 A2982
KBJC 210047Z 02008KT 30SM OVC034 02/M02 A2982
KBJC 202347Z 02008KT 50SM BKN036 BKN060 BKN120 03/M02 A2979
KBJC 202255Z 03009KT 50SM SCT080 BKN180 05/M02 A2978
KBJC 202200Z 04007KT 50SM SCT080 BKN210 06/M03 A2976
KBJC 202147Z 36007KT 50SM SCT080 BKN210 06/M03 A2976
KBJC 202047Z 36008KT 50SM SCT080 BKN210 07/M04 A2975
KBJC 201945Z 35009KT 50SM FEW080 BKN210 07/M05 A2977
KBJC 201845Z 35012KT 50SM FEW080 BKN210 07/M06 A2978
KBJC 201745Z 34012KT 50SM FEW080 BKN210 07/M07 A2981
KBJC 201645Z VRB04KT 50SM FEW080 BKN210 09/M09 A2979
KBJC 201545Z VRB04KT 10SM FEW080 SCT110 BKN210 07/M08 A2977
KBJC 201450Z 32005KT 10SM SCT150 04/M09 A2976
KBJC 201345Z 02005KT 50SM SCT150 07/M11 A2975
KBJC 201255Z AUTO 26010KT 10SM CLR 05/M11 A2976 RMK AO2
KBJC 201249Z AUTO 13005KT 10SM CLR 05/M11 A2974 RMK AO2
KBJC 201245Z VRB04KT 30SM SCT120 06/M12 A2974
KBJC 201231Z AUTO 02003KT 10SM CLR 04/M11 A2973 RMK AO2
KBJC 201213Z AUTO 00000KT 10SM CLR 05/M11 A2974 RMK AO2
KBJC 201154Z AUTO 22003KT 10SM CLR 05/M11 A2975 RMK AO2
KBJC 201133Z AUTO 29004KT 10SM CLR 05/M10 A2974 RMK AO2
KBJC 201110Z AUTO 29004KT 10SM CLR 06/M11 A2974 RMK AO2
KBJC 201054Z AUTO 28006KT 10SM CLR 05/M11 A2975 RMK AO2
KBJC 201031Z AUTO 33006KT 10SM CLR 09/M11 A2975 RMK AO2
KBJC 201012Z AUTO 29003KT 10SM CLR 07/M11 A2975 RMK AO2
KBJC 200949Z AUTO 27003KT 10SM CLR 06/M11 A2975 RMK AO2
KBJC 200931Z AUTO 00000KT 10SM CLR 07/M10 A2975 RMK AO2
KBJC 200913Z AUTO 00000KT 10SM CLR 09/M10 A2976 RMK AO2
KBJC 200852Z AUTO 29006KT 10SM CLR 07/M10 A2975 RMK AO2
KBJC 200829Z AUTO 28003KT 10SM CLR 06/M10 A2974 RMK AO2
KBJC 200811Z AUTO 00000KT 10SM CLR 05/M10 A2974 RMK AO2
KBJC 200753Z AUTO 22005KT 10SM CLR 07/M10 A2975 RMK AO2
KBJC 200730Z AUTO 00000KT 10SM CLR 09/M10 A2974 RMK AO2
KBJC 200712Z AUTO 27003KT 10SM CLR 05/M10 A2974 RMK AO2
KBJC 200654Z AUTO 00000KT 10SM CLR 10/M10 A2974 RMK AO2
KBJC 200631Z AUTO 30003KT 10SM CLR 07/M10 A2975 RMK AO2
KBJC 200613Z AUTO 29006KT 10SM CLR 08/M10 A2975 RMK AO2
KBJC 200552Z AUTO 27005KT 10SM CLR 07/M10 A2975 RMK AO2
KBJC 200534Z AUTO 28007KT 10SM CLR 08/M10 A2976 RMK AO2
KBJC 200512Z AUTO 30007KT 10SM CLR 10/M10 A2976 RMK AO2
KBJC 200447Z 27004KT 30SM SCT220 12/M10 A2975 RMK LAST
KBJC 200345Z 30005KT 30SM FEW140 SCT220 11/M09 A2976
KBJC 200247Z 26003KT 30SM FEW140 SCT220 12/M09 A2976
KBJC 200145Z VRB04KT 50SM FEW100 BKN220 12/M09 A2975
KBJC 200045Z 27005KT 50SM FEW100 BKN220 15/M10 A2975
KBJC 192347Z 03003KT 50SM FEW100 FEW140 BKN220 17/M09 A2973 RMK ACSL DSNT SW-NW
KBJC 192247Z 04005KT 50SM FEW100 FEW140 BKN220 20/M09 A2972 RMK ACSL DSNT SW-NW
KBJC 192145Z 05005KT 30SM FEW080 BKN200 20/M09 A2972
KBJC 192045Z 00000KT 10SM BKN200 19/M09 A2973
KBJC 191950Z 13004KT 10SM BKN200 18/M09 A2975
KBJC 191845Z 20003KT 50SM BKN200 16/M08 A2979
KBJC 191745Z 14004KT 50SM BKN200 14/M08 A2980
KBJC 191655Z 24003KT 10SM BKN180 12/M07 A2982
KBJC 191552Z 22003KT 70SM BKN180 10/M08 A2981